Kecel, Hungary
Current Conditions -  °F | °C
As of 11:15 PM on Friday 31 Oct 2014 (Local Time) from LHKE Reporting Station
Moderate Fog Moderate Fog  
Wind Chill: 32°   Ceiling: Unl
Heat Index: 36°   Visibility: 0.25mi
Dew Point: 36°   Wind: 5mph
Humidity: 100%   Direction: 310°NW
Pressure: 30.33"   Gusts: NA
Location:  46.53°N, 19.24°E
Report Text: LHKE 312115Z 31004KT 0400 FG NSC 02/02 Q1027 NOSIG RMK RED
Loading
Personal Weather Stations






























Interactive Weather Map
Tropical Storm Tracking
New forecast layout! Learn more

10-Day Weather Forecast

Advertisements
Track Severe Weather on mobile